LIPS

Istrana Airport

Istrana, Italy
TAF LIPS 171100Z 1712/1721 27005KT 9999 SCT080 BECMG 1717/1719 5000 BR NSC
Issued Valid From Valid To
Dec-17 @ 11:00 UTC
(2 hours ago)
Dec-17 @ 12:00 UTC
(52 minutes ago)
Dec-17 @ 21:00 UTC
(in 8 hours)
Dec-17 @ 12:00 to Dec-17 @ 17:00
TAF LIPS 171100Z 1712/1721 27005KT 9999 SCT080
Wind Visibility Clouds
270° at 5 knots 10,000+ meters
  • Scattered at 8,000' AGL
Becoming Dec-17 @ 17:00 to Dec-17 @ 21:00
BECMG 1717/1719 5000 BR NSC
Wind Visibility Clouds Conditions
270° at 5 knots 5,005 meters
  • No significant clouds
  • Mist
TAF LIPS 171100Z 1712/1721 27005KT 9999 SCT080 BECMG 1717/1719 5000 BR NSC
Issued Dec-17 @ 11:00 UTC
(2 hours ago)
Valid From Dec-17 @ 12:00 UTC
(52 minutes ago)
Valid To Dec-17 @ 21:00 UTC
(in 8 hours)
Dec-17 @ 12:00 - Dec-17 @ 17:00
Wind Visibility
270° at 5 knots 10,000+ meters
Clouds
  • Scattered at 8,000' AGL
Becoming Dec-17 @ 17:00 - Dec-17 @ 21:00
Wind Visibility
270° at 5 knots 5,005 meters
Clouds
  • No significant clouds
Conditions
  • Mist